Time;durP1;ratioP1;P1;durP2;ratioP2;P2;SDS_P1;SDS_P2;PMS_P1;PMS_P2;Temp;Humidity;BMP_temperature;BMP_pressure;BME280_temperature;BME280_humidity;BME280_pressure;Samples;Min_cycle;Max_cycle;Signal;HPM_P1;HPM_P2
2023/06/22 00:01:51;;;;;;;;;;;;;;;27.06;43.96;101942.03;5067288;28;20470;-73
2023/06/22 00:04:16;;;;;;;;;;;;;;;27.06;44.23;101941.16;5067746;28;19998;-72
2023/06/22 00:06:41;;;;;;;;;;;;;;;27.05;43.95;101937.59;5063813;28;20023;-73
2023/06/22 00:09:07;;;;;;;;;;;;;;;27.05;44.01;101928.56;5071688;28;19916;-73
2023/06/22 00:11:33;;;;;;;;;;;;;;;27.03;44.09;101926.03;5062132;28;19992;-73
2023/06/22 00:13:58;;;;;;;;;;;;;;;27.03;44.01;101931.50;5063572;28;19919;-73
2023/06/22 00:16:23;;;;;;;;;;;;;;;27.02;43.96;101923.50;5071841;28;19926;-73
2023/06/22 00:18:48;;;;;;;;;;;;;;;27.02;44.06;101928.97;5059988;28;19935;-73
2023/06/22 00:21:14;;;;;;;;;;;;;;;27.01;43.97;101930.00;5071551;28;19920;-73
2023/06/22 00:23:39;;;;;;;;;;;;;;;27.01;44.22;101924.53;5060019;28;19913;-73
2023/06/22 00:26:04;;;;;;;;;;;;;;;27.00;44.07;101920.13;5063418;28;20012;-73
2023/06/22 00:28:30;;;;;;;;;;;;;;;26.99;43.84;101921.16;5039077;28;20379;-73
2023/06/22 00:30:55;;;;;;;;;;;;;;;26.98;44.10;101920.34;5065787;28;19916;-73
2023/06/22 00:33:20;;;;;;;;;;;;;;;26.98;44.01;101923.06;5034362;28;19917;-73
2023/06/22 00:35:45;;;;;;;;;;;;;;;26.97;44.02;101913.16;5067370;28;19969;-73
2023/06/22 00:38:11;;;;;;;;;;;;;;;26.97;43.84;101910.44;5065986;28;19917;-73
2023/06/22 00:40:36;;;;;;;;;;;;;;;26.96;44.00;101908.75;5058863;28;19912;-73
2023/06/22 00:43:02;;;;;;;;;;;;;;;26.96;43.85;101902.44;5075172;28;19919;-73
2023/06/22 00:45:27;;;;;;;;;;;;;;;26.96;43.86;101913.38;5041110;28;19920;-73
2023/06/22 00:47:52;;;;;;;;;;;;;;;26.94;43.96;101907.28;5050297;28;19917;-73
2023/06/22 00:50:21;;;;;;;;;;;;;;;26.95;43.75;101908.97;5066766;28;19913;-73
2023/06/22 00:52:53;;;;;;;;;;;;;;;26.94;43.83;101904.56;5060180;28;20016;-72
2023/06/22 00:55:19;;;;;;;;;;;;;;;26.92;43.89;101908.31;5050330;28;19921;-73
2023/06/22 00:57:46;;;;;;;;;;;;;;;26.92;43.96;101902.84;5045813;28;19913;-72
2023/06/22 01:00:18;;;;;;;;;;;;;;;26.91;43.82;101901.16;5060981;28;19953;-72
2023/06/22 01:02:45;;;;;;;;;;;;;;;26.91;43.78;101892.97;5074973;28;19924;-72
2023/06/22 01:05:12;;;;;;;;;;;;;;;26.90;43.83;101902.22;5067186;28;20607;-72
2023/06/22 01:07:43;;;;;;;;;;;;;;;26.90;43.76;101907.66;5058581;28;20281;-72
2023/06/22 01:10:25;;;;;;;;;;;;;;;26.90;43.67;101904.09;5056222;28;19948;-72
2023/06/22 01:13:02;;;;;;;;;;;;;;;26.89;43.96;101905.16;5056561;28;20340;-72
2023/06/22 01:15:28;;;;;;;;;;;;;;;26.89;43.71;101900.53;5051014;28;19933;-72
2023/06/22 01:17:53;;;;;;;;;;;;;;;26.88;43.56;101898.81;5033951;28;19996;-72
2023/06/22 01:20:19;;;;;;;;;;;;;;;26.88;43.71;101898.81;5038848;28;19913;-72
2023/06/22 01:22:50;;;;;;;;;;;;;;;26.87;43.90;101910.78;5049617;28;19914;-72
2023/06/22 01:25:26;;;;;;;;;;;;;;;26.87;43.69;101910.78;5045979;28;19914;-72
2023/06/22 01:28:14;;;;;;;;;;;;;;;26.87;43.63;101910.78;5041112;28;20364;-72
2023/06/22 01:30:40;;;;;;;;;;;;;;;26.86;43.63;101905.53;5045754;28;19913;-72
2023/06/22 01:33:05;;;;;;;;;;;;;;;26.85;43.75;101906.59;5059349;28;19914;-72
2023/06/22 01:35:30;;;;;;;;;;;;;;;26.85;43.74;101901.97;5039053;28;19944;-72
2023/06/22 01:37:56;;;;;;;;;;;;;;;26.85;43.49;101906.59;5066154;28;20024;-72
2023/06/22 01:40:21;;;;;;;;;;;;;;;26.84;43.49;101902.97;5032127;28;19920;-72
2023/06/22 01:42:46;;;;;;;;;;;;;;;26.84;43.47;101904.88;5049938;28;19914;-72
2023/06/22 01:45:11;;;;;;;;;;;;;;;26.83;43.61;101898.56;5042502;28;19972;-72
2023/06/22 01:47:37;;;;;;;;;;;;;;;26.82;43.42;101902.34;5039566;28;19937;-73
2023/06/22 01:50:02;;;;;;;;;;;;;;;26.82;43.63;101898.78;5035177;28;19917;-73
2023/06/22 01:52:27;;;;;;;;;;;;;;;26.82;43.46;101905.09;5044100;28;19980;-72
2023/06/22 01:54:53;;;;;;;;;;;;;;;26.80;43.46;101901.69;5043062;28;20364;-72
2023/06/22 01:57:18;;;;;;;;;;;;;;;26.81;43.56;101902.56;5044094;28;19913;-73
2023/06/22 01:59:43;;;;;;;;;;;;;;;26.79;43.24;101886.38;5047051;28;20374;-72
2023/06/22 02:02:09;;;;;;;;;;;;;;;26.79;43.61;101891.81;5038466;28;20016;-73
2023/06/22 02:04:36;;;;;;;;;;;;;;;26.78;43.41;101889.31;5055155;28;19940;-72
2023/06/22 02:07:01;;;;;;;;;;;;;;;26.77;43.38;101890.34;5036966;28;19928;-73
2023/06/22 02:09:28;;;;;;;;;;;;;;;26.76;43.55;101888.66;5048087;28;19945;-73
2023/06/22 02:11:55;;;;;;;;;;;;;;;26.74;43.60;101877.09;5058491;28;19977;-73
2023/06/22 02:14:20;;;;;;;;;;;;;;;26.74;43.56;101882.56;5053430;28;19920;-72
2023/06/22 02:16:45;;;;;;;;;;;;;;;26.71;43.77;101872.88;5049167;28;19924;-72
2023/06/22 02:19:10;;;;;;;;;;;;;;;26.71;43.37;101878.31;5054700;28;19963;-72
2023/06/22 02:21:36;;;;;;;;;;;;;;;26.70;43.53;101881.25;5043077;28;19986;-73
2023/06/22 02:24:02;;;;;;;;;;;;;;;26.69;43.35;101885.88;5044039;28;19913;-72
2023/06/22 02:26:27;;;;;;;;;;;;;;;26.68;43.47;101878.75;5046756;28;19944;-72
2023/06/22 02:28:52;;;;;;;;;;;;;;;26.67;43.54;101875.13;5037531;28;19963;-73
2023/06/22 02:31:18;;;;;;;;;;;;;;;26.66;43.54;101878.91;5050460;28;19920;-73
2023/06/22 02:33:43;;;;;;;;;;;;;;;26.66;43.47;101880.81;5041854;28;19925;-72
2023/06/22 02:36:09;;;;;;;;;;;;;;;26.65;43.40;101874.50;5042149;28;19916;-73
2023/06/22 02:38:34;;;;;;;;;;;;;;;26.65;43.55;101879.13;5049857;28;19913;-73
2023/06/22 02:41:00;;;;;;;;;;;;;;;26.65;43.23;101876.41;5034312;28;19913;-72
2023/06/22 02:43:25;;;;;;;;;;;;;;;26.64;43.47;101881.00;5048391;28;19918;-73
2023/06/22 02:45:50;;;;;;;;;;;;;;;26.63;43.18;101881.19;5041631;28;19936;-73
2023/06/22 02:48:15;;;;;;;;;;;;;;;26.62;43.46;101884.97;5041257;28;20326;-73
2023/06/22 02:50:41;;;;;;;;;;;;;;;26.61;43.27;101886.84;5045986;28;19913;-73
2023/06/22 02:53:06;;;;;;;;;;;;;;;26.62;43.24;101887.69;5045705;28;19944;-73
2023/06/22 02:55:31;;;;;;;;;;;;;;;26.61;43.34;101884.13;5038171;28;19926;-73
2023/06/22 02:57:57;;;;;;;;;;;;;;;26.60;43.27;101879.72;5048958;28;19924;-72
2023/06/22 03:00:22;;;;;;;;;;;;;;;26.59;43.21;101880.78;5046784;28;20286;-73
2023/06/22 03:02:48;;;;;;;;;;;;;;;26.60;43.16;101878.88;5039684;28;19913;-72
2023/06/22 03:05:18;;;;;;;;;;;;;;;26.59;43.31;101880.78;5055904;28;19918;-73
2023/06/22 03:07:46;;;;;;;;;;;;;;;26.58;43.22;101879.06;5041283;28;19981;-73
2023/06/22 03:10:12;;;;;;;;;;;;;;;26.58;43.08;101872.75;5050102;28;19917;-73
2023/06/22 03:12:37;;;;;;;;;;;;;;;26.57;43.24;101871.91;5048000;28;19913;-73
2023/06/22 03:15:03;;;;;;;;;;;;;;;26.57;43.04;101866.47;5048221;28;20279;-73
2023/06/22 03:17:28;;;;;;;;;;;;;;;26.57;43.11;101869.19;5054443;28;19988;-73
2023/06/22 03:19:54;;;;;;;;;;;;;;;26.55;43.23;101868.56;5068168;28;19920;-72
2023/06/22 03:22:19;;;;;;;;;;;;;;;26.55;43.05;101871.28;5052813;28;19920;-73
2023/06/22 03:24:44;;;;;;;;;;;;;;;26.54;43.16;101869.56;5068896;28;19913;-72
2023/06/22 03:27:09;;;;;;;;;;;;;;;26.53;43.30;101873.34;5072906;28;20519;-73
2023/06/22 03:29:35;;;;;;;;;;;;;;;26.54;43.20;101871.47;5038920;28;19959;-73
2023/06/22 03:32:00;;;;;;;;;;;;;;;26.53;43.04;101869.78;5076447;28;20039;-73
2023/06/22 03:34:25;;;;;;;;;;;;;;;26.53;42.99;101858.88;5064609;28;19939;-73
2023/06/22 03:36:50;;;;;;;;;;;;;;;26.51;43.09;101867.28;5067620;28;19917;-73
2023/06/22 03:39:15;;;;;;;;;;;;;;;26.52;43.08;101874.41;5071757;28;19913;-72
2023/06/22 03:41:40;;;;;;;;;;;;;;;26.52;43.26;101870.84;5062152;28;19916;-73
2023/06/22 03:44:06;;;;;;;;;;;;;;;26.51;43.04;101863.69;5069734;28;19913;-72
2023/06/22 03:46:31;;;;;;;;;;;;;;;26.50;42.95;101862.81;5064761;28;19918;-72
2023/06/22 03:48:56;;;;;;;;;;;;;;;26.50;42.98;101856.53;5067985;28;19912;-73
2023/06/22 03:51:22;;;;;;;;;;;;;;;26.49;43.13;101847.50;5064280;28;19920;-73
2023/06/22 03:53:48;;;;;;;;;;;;;;;26.49;42.93;101847.50;5071976;28;19920;-72
2023/06/22 03:56:13;;;;;;;;;;;;;;;26.49;42.98;101843.94;5042784;28;19945;-73
2023/06/22 03:58:42;;;;;;;;;;;;;;;26.48;42.99;101851.28;5055897;28;19920;-73
2023/06/22 04:01:11;;;;;;;;;;;;;;;26.47;42.99;101852.34;5067303;28;19913;-73
2023/06/22 04:03:36;;;;;;;;;;;;;;;26.47;43.19;101855.06;5040967;28;19984;-72
2023/06/22 04:06:01;;;;;;;;;;;;;;;26.46;43.06;101849.78;5074865;28;19917;-72
2023/06/22 04:08:26;;;;;;;;;;;;;;;26.47;42.94;101854.22;5060012;28;20263;-73
2023/06/22 04:10:52;;;;;;;;;;;;;;;26.45;42.94;101851.66;5070791;28;19912;-73
2023/06/22 04:13:17;;;;;;;;;;;;;;;26.46;42.93;101857.97;5067218;28;20377;-73
2023/06/22 04:15:42;;;;;;;;;;;;;;;26.45;43.12;101845.38;5066442;28;19927;-72
2023/06/22 04:18:07;;;;;;;;;;;;;;;26.43;42.87;101843.66;5066421;28;19921;-72
2023/06/22 04:20:32;;;;;;;;;;;;;;;26.44;42.98;101850.00;5069523;28;19924;-72
2023/06/22 04:22:59;;;;;;;;;;;;;;;26.43;42.94;101851.00;5061952;28;20223;-72
2023/06/22 04:25:25;;;;;;;;;;;;;;;26.43;42.96;101851.00;5068782;28;19935;-71
2023/06/22 04:27:50;;;;;;;;;;;;;;;26.42;43.06;101852.91;5070360;28;19925;-72
2023/06/22 04:30:16;;;;;;;;;;;;;;;26.41;43.17;101848.47;5054276;28;19913;-71
2023/06/22 04:32:42;;;;;;;;;;;;;;;26.41;43.04;101853.91;5077032;28;19987;-72
2023/06/22 04:35:07;;;;;;;;;;;;;;;26.40;43.08;101852.22;5062208;28;20280;-71
2023/06/22 04:37:33;;;;;;;;;;;;;;;26.41;43.07;101853.06;5065265;28;19916;-72
2023/06/22 04:39:58;;;;;;;;;;;;;;;26.40;43.09;101849.50;5069608;28;19921;-73
2023/06/22 04:42:25;;;;;;;;;;;;;;;26.39;42.95;101844.25;5064012;28;19912;-72
2023/06/22 04:44:51;;;;;;;;;;;;;;;26.39;43.17;101842.38;5045699;28;19925;-72
2023/06/22 04:47:16;;;;;;;;;;;;;;;26.38;42.97;101837.13;5065196;28;19925;-72
2023/06/22 04:49:43;;;;;;;;;;;;;;;26.38;42.98;101842.56;5067501;28;20721;-72
2023/06/22 04:52:09;;;;;;;;;;;;;;;26.36;43.15;101834.56;5061915;28;19913;-72
2023/06/22 04:54:36;;;;;;;;;;;;;;;26.36;43.12;101842.75;5058963;28;19913;-72
2023/06/22 04:57:01;;;;;;;;;;;;;;;26.36;43.08;101836.47;5057660;28;20299;-72
2023/06/22 04:59:30;;;;;;;;;;;;;;;26.35;43.17;101835.63;5053938;28;19975;-72
2023/06/22 05:01:56;;;;;;;;;;;;;;;26.35;43.29;101841.06;5063263;28;19976;-72
2023/06/22 05:04:23;;;;;;;;;;;;;;;26.34;43.09;101833.94;5060831;28;19913;-72
2023/06/22 05:06:48;;;;;;;;;;;;;;;26.34;43.28;101833.09;5071613;28;20004;-72
2023/06/22 05:09:13;;;;;;;;;;;;;;;26.34;43.07;101838.56;5052309;28;19920;-72
2023/06/22 05:11:38;;;;;;;;;;;;;;;26.33;43.12;101839.56;5065382;28;19913;-72
2023/06/22 05:14:03;;;;;;;;;;;;;;;26.33;43.34;101839.56;5062791;28;19920;-72
2023/06/22 05:16:29;;;;;;;;;;;;;;;26.32;42.98;101833.28;5068172;28;19924;-73
2023/06/22 05:18:54;;;;;;;;;;;;;;;26.30;43.16;101838.09;5063570;28;19926;-72
2023/06/22 05:21:24;;;;;;;;;;;;;;;26.31;43.23;101844.38;5053574;28;19992;-72
2023/06/22 05:23:49;;;;;;;;;;;;;;;26.30;43.29;101835.38;5058909;28;19913;-72
2023/06/22 05:26:14;;;;;;;;;;;;;;;26.30;43.35;101839.97;5037724;28;19927;-72
2023/06/22 05:28:39;;;;;;;;;;;;;;;26.29;43.32;101838.28;5068214;28;19985;-72
2023/06/22 05:31:05;;;;;;;;;;;;;;;26.28;43.32;101833.88;5056035;28;19959;-71
2023/06/22 05:33:30;;;;;;;;;;;;;;;26.27;43.21;101837.63;5075333;28;19921;-73
2023/06/22 05:35:55;;;;;;;;;;;;;;;26.28;43.47;101836.59;5059833;28;20469;-72
2023/06/22 05:38:20;;;;;;;;;;;;;;;26.26;43.25;101839.53;5066400;28;19916;-72
2023/06/22 05:40:46;;;;;;;;;;;;;;;26.25;43.29;101840.56;5067586;28;20317;-72
2023/06/22 05:43:11;;;;;;;;;;;;;;;26.26;43.42;101839.53;5065752;28;19917;-71
2023/06/22 05:45:36;;;;;;;;;;;;;;;26.26;43.47;101841.41;5060189;28;19920;-72
2023/06/22 05:48:01;;;;;;;;;;;;;;;26.24;43.34;101838.88;5067733;28;20432;-73
2023/06/22 05:50:26;;;;;;;;;;;;;;;26.25;43.32;101843.28;5051895;28;20339;-71
2023/06/22 05:52:52;;;;;;;;;;;;;;;26.25;43.38;101850.59;5034775;28;19995;-72
2023/06/22 05:55:18;;;;;;;;;;;;;;;26.25;43.41;101854.19;5070979;28;19924;-72
2023/06/22 05:57:43;;;;;;;;;;;;;;;26.24;43.48;101852.50;5055663;28;20371;-72
2023/06/22 06:00:11;;;;;;;;;;;;;;;26.25;43.56;101856.94;5072408;28;19963;-72
2023/06/22 06:02:36;;;;;;;;;;;;;;;26.25;43.33;101856.94;5051501;28;19917;-72
2023/06/22 06:05:02;;;;;;;;;;;;;;;26.24;43.63;101848.94;5059511;28;19916;-71
2023/06/22 06:07:27;;;;;;;;;;;;;;;26.24;43.51;101852.50;5053978;28;19951;-71
2023/06/22 06:09:53;;;;;;;;;;;;;;;26.24;43.33;101860.66;5063268;28;19913;-72
2023/06/22 06:12:18;;;;;;;;;;;;;;;26.24;43.50;101855.22;5063422;28;19959;-72
2023/06/22 06:14:43;;;;;;;;;;;;;;;26.25;43.25;101864.22;5065793;28;20005;-71
2023/06/22 06:17:08;;;;;;;;;;;;;;;26.25;43.61;101856.06;5066552;28;19924;-72
2023/06/22 06:19:34;;;;;;;;;;;;;;;26.23;43.50;101861.72;5038136;28;19959;-71
2023/06/22 06:21:59;;;;;;;;;;;;;;;26.22;43.43;101851.84;5073161;28;19913;-72
2023/06/22 06:24:24;;;;;;;;;;;;;;;26.24;43.51;101846.19;5058340;28;19959;-71
2023/06/22 06:26:49;;;;;;;;;;;;;;;26.23;43.39;101845.34;5066555;28;19956;-72
2023/06/22 06:29:16;;;;;;;;;;;;;;;26.22;43.55;101840.94;5066126;28;19912;-72
2023/06/22 06:31:41;;;;;;;;;;;;;;;26.23;43.43;101850.81;5059047;28;19919;-72
2023/06/22 06:34:06;;;;;;;;;;;;;;;26.21;43.38;101849.31;5069252;28;19916;-71
2023/06/22 06:36:31;;;;;;;;;;;;;;;26.22;43.49;101846.41;5059918;28;19960;-72
2023/06/22 06:38:57;;;;;;;;;;;;;;;26.22;43.32;101851.00;5062321;28;20361;-72
2023/06/22 06:41:22;;;;;;;;;;;;;;;26.22;43.45;101845.56;5063796;28;20409;-72
2023/06/22 06:43:48;;;;;;;;;;;;;;;26.21;43.64;101846.56;5067475;28;19913;-72
2023/06/22 06:46:13;;;;;;;;;;;;;;;26.20;43.52;101842.19;5056509;28;19944;-72
2023/06/22 06:48:39;;;;;;;;;;;;;;;26.20;43.53;101840.28;5070378;28;20354;-72
2023/06/22 06:51:04;;;;;;;;;;;;;;;26.20;43.60;101839.44;5061263;28;19920;-72
2023/06/22 06:53:30;;;;;;;;;;;;;;;26.19;43.69;101824.97;5060160;28;19913;-72
2023/06/22 06:55:55;;;;;;;;;;;;;;;26.18;43.59;101834.19;5070064;28;19925;-71
2023/06/22 06:58:20;;;;;;;;;;;;;;;26.17;43.52;101841.53;5037131;28;19917;-72
2023/06/22 07:00:45;;;;;;;;;;;;;;;26.18;43.58;101839.66;5070195;28;19920;-72
2023/06/22 07:03:10;;;;;;;;;;;;;;;26.16;43.45;101834.38;5062061;28;19917;-72
2023/06/22 07:05:36;;;;;;;;;;;;;;;26.17;43.48;101837.97;5062098;28;19966;-72
2023/06/22 07:08:01;;;;;;;;;;;;;;;26.16;43.66;101834.38;5066376;28;19927;-72
2023/06/22 07:10:27;;;;;;;;;;;;;;;26.16;43.61;101825.34;5045211;28;19913;-72
2023/06/22 07:12:52;;;;;;;;;;;;;;;26.16;43.55;101825.34;5057696;28;19917;-72
2023/06/22 07:15:17;;;;;;;;;;;;;;;26.16;43.77;101822.63;5065251;28;19921;-72
2023/06/22 07:17:42;;;;;;;;;;;;;;;26.14;43.43;101817.38;5065934;28;19919;-72
2023/06/22 07:20:11;;;;;;;;;;;;;;;26.15;43.66;101810.06;5048733;28;19920;-72
2023/06/22 07:22:37;;;;;;;;;;;;;;;26.13;43.74;101810.25;5073009;28;20385;-72
2023/06/22 07:25:09;;;;;;;;;;;;;;;26.14;43.73;101808.38;5057703;28;19986;-72
2023/06/22 07:27:37;;;;;;;;;;;;;;;26.14;43.74;101808.38;5071761;28;19916;-72
2023/06/22 07:30:02;;;;;;;;;;;;;;;26.14;43.43;101800.19;5064018;28;19920;-72
2023/06/22 07:32:28;;;;;;;;;;;;;;;26.13;43.62;101803.97;5043190;28;19913;-72
2023/06/22 07:34:53;;;;;;;;;;;;;;;26.13;43.75;101815.72;5064352;28;19912;-72
2023/06/22 07:37:19;;;;;;;;;;;;;;;26.13;43.53;101801.25;5051132;28;19920;-72
2023/06/22 07:39:44;;;;;;;;;;;;;;;26.12;43.71;101803.13;5060040;28;19916;-72
2023/06/22 07:42:12;;;;;;;;;;;;;;;26.12;43.49;101805.84;5044493;28;19913;-72
2023/06/22 07:44:37;;;;;;;;;;;;;;;25.74;43.64;101745.25;5053955;28;19917;-72
2023/06/22 07:47:03;;;;;;;;;;;;;;;26.13;43.60;101812.97;5054303;28;19924;-72
2023/06/22 07:49:29;;;;;;;;;;;;;;;26.12;43.72;101800.41;5076802;28;19923;-72
2023/06/22 07:51:54;;;;;;;;;;;;;;;26.13;43.71;101812.16;5059723;28;19913;-73
2023/06/22 07:54:19;;;;;;;;;;;;;;;26.12;43.68;101799.53;5066973;28;19912;-72
2023/06/22 07:56:46;;;;;;;;;;;;;;;26.12;43.72;101794.94;5071352;28;19913;-72
2023/06/22 07:59:11;;;;;;;;;;;;;;;26.12;43.58;101792.22;5062038;28;20368;-72
2023/06/22 08:01:36;;;;;;;;;;;;;;;26.13;43.77;101798.50;5069232;28;19920;-72
2023/06/22 08:04:01;;;;;;;;;;;;;;;26.12;43.60;101794.09;5063652;28;19913;-72
2023/06/22 08:06:26;;;;;;;;;;;;;;;26.12;43.72;101794.94;5066463;28;19984;-72
2023/06/22 08:08:54;;;;;;;;;;;;;;;26.11;43.74;101793.25;5066048;28;19916;-72
2023/06/22 08:11:19;;;;;;;;;;;;;;;26.12;43.60;101791.34;5071291;28;19940;-72
2023/06/22 08:13:44;;;;;;;;;;;;;;;26.12;43.77;101788.63;5059244;28;19916;-72
2023/06/22 08:16:10;;;;;;;;;;;;;;;26.12;43.84;101784.06;5072991;28;19921;-72
2023/06/22 08:18:35;;;;;;;;;;;;;;;26.12;43.84;101786.78;5066792;28;19913;-72
2023/06/22 08:21:00;;;;;;;;;;;;;;;26.11;43.77;101779.59;5057831;28;19935;-71
2023/06/22 08:23:25;;;;;;;;;;;;;;;26.12;43.89;101786.78;5075093;28;19912;-72
2023/06/22 08:25:51;;;;;;;;;;;;;;;26.12;43.78;101780.44;5058686;28;19917;-72
2023/06/22 08:28:16;;;;;;;;;;;;;;;26.12;43.77;101769.53;5070489;28;19916;-72
2023/06/22 08:30:41;;;;;;;;;;;;;;;26.13;43.51;101772.09;5066160;28;20385;-71
2023/06/22 08:33:06;;;;;;;;;;;;;;;26.13;43.74;101765.81;5066143;28;19913;-71
2023/06/22 08:35:32;;;;;;;;;;;;;;;26.13;43.71;101763.09;5047847;28;19917;-72
2023/06/22 08:37:57;;;;;;;;;;;;;;;26.13;43.73;101761.19;5068597;28;19913;-73
2023/06/22 08:40:24;;;;;;;;;;;;;;;26.14;43.59;101748.41;5051510;28;19996;-72
2023/06/22 08:42:49;;;;;;;;;;;;;;;26.13;43.59;101744.84;5063720;28;19912;-72
2023/06/22 08:45:14;;;;;;;;;;;;;;;26.13;43.49;101736.66;5069724;28;19919;-72
2023/06/22 08:47:41;;;;;;;;;;;;;;;26.14;43.68;101732.06;5037396;28;20345;-72
2023/06/22 08:50:07;;;;;;;;;;;;;;;26.14;43.50;101732.06;5057581;28;19979;-72
2023/06/22 08:52:33;;;;;;;;;;;;;;;26.13;43.65;101725.75;5044086;28;20376;-72
2023/06/22 08:55:05;;;;;;;;;;;;;;;26.14;43.40;101724.72;5063205;28;19919;-72
2023/06/22 08:57:32;;;;;;;;;;;;;;;26.14;43.71;101721.16;5067991;28;20353;-72
2023/06/22 09:00:00;;;;;;;;;;;;;;;26.15;43.71;101723.66;5063337;28;19935;-72
2023/06/22 09:02:26;;;;;;;;;;;;;;;26.14;43.73;101713.81;5049052;28;19912;-72
2023/06/22 09:04:55;;;;;;;;;;;;;;;26.14;43.71;101713.81;5048261;28;19965;-72
2023/06/22 09:07:22;;;;;;;;;;;;;;;26.14;43.82;101719.25;5063504;28;19917;-72
2023/06/22 09:09:47;;;;;;;;;;;;;;;26.16;43.76;101708.16;5047869;28;19935;-72
2023/06/22 09:12:12;;;;;;;;;;;;;;;26.15;43.80;101707.31;5067704;28;19917;-72
2023/06/22 09:14:37;;;;;;;;;;;;;;;26.15;43.61;101710.03;5048768;28;20004;-72
2023/06/22 09:17:03;;;;;;;;;;;;;;;26.17;43.82;101707.13;5075429;28;20332;-72
2023/06/22 09:19:28;;;;;;;;;;;;;;;26.16;43.65;101709.00;5045502;28;19912;-72
2023/06/22 09:21:53;;;;;;;;;;;;;;;26.16;43.60;101708.16;5061024;28;19924;-72
2023/06/22 09:24:18;;;;;;;;;;;;;;;26.17;43.48;101712.59;5071574;28;20382;-72
2023/06/22 09:26:43;;;;;;;;;;;;;;;26.17;43.73;101718.88;5060534;28;19918;-72
2023/06/22 09:29:09;;;;;;;;;;;;;;;26.17;43.88;101713.44;5063806;28;19972;-73
2023/06/22 09:31:34;;;;;;;;;;;;;;;26.17;43.70;101713.44;5063328;28;19913;-73
2023/06/22 09:33:59;;;;;;;;;;;;;;;26.18;43.71;101711.53;5067750;28;19919;-72
2023/06/22 09:36:24;;;;;;;;;;;;;;;26.18;43.84;101711.53;5059071;28;19919;-72
2023/06/22 09:38:55;;;;;;;;;;;;;;;26.18;43.81;101715.09;5070734;28;20259;-73
2023/06/22 09:41:21;;;;;;;;;;;;;;;26.18;43.75;101717.00;5061397;28;20378;-73
2023/06/22 09:43:48;;;;;;;;;;;;;;;26.18;43.89;101722.44;5050326;28;19913;-73
2023/06/22 09:46:14;;;;;;;;;;;;;;;26.19;43.66;101715.94;5065878;28;19972;-73
2023/06/22 09:48:39;;;;;;;;;;;;;;;26.20;43.98;101717.63;5036251;28;20325;-73
2023/06/22 09:51:05;;;;;;;;;;;;;;;26.20;43.81;101714.91;5071178;28;19912;-73
2023/06/22 09:53:30;;;;;;;;;;;;;;;26.21;43.92;101705.69;5058421;28;19917;-73
2023/06/22 09:55:55;;;;;;;;;;;;;;;26.20;44.04;101714.91;5065823;28;19934;-73
2023/06/22 09:58:20;;;;;;;;;;;;;;;26.21;43.91;101699.38;5066411;28;19924;-73
2023/06/22 10:00:45;;;;;;;;;;;;;;;26.21;44.01;101699.38;5065855;28;19917;-73
2023/06/22 10:03:11;;;;;;;;;;;;;;;26.21;43.75;101697.53;5059751;28;19916;-72
2023/06/22 10:05:36;;;;;;;;;;;;;;;26.23;44.04;101698.16;5067175;28;19959;-72
2023/06/22 10:08:01;;;;;;;;;;;;;;;26.22;43.96;101693.75;5062120;28;19925;-72
2023/06/22 10:10:26;;;;;;;;;;;;;;;26.24;43.80;101699.00;5050582;28;19920;-71
2023/06/22 10:13:01;;;;;;;;;;;;;;;26.24;43.77;101697.09;5069810;28;19912;-73
2023/06/22 10:15:26;;;;;;;;;;;;;;;26.24;43.74;101702.56;5033548;28;20367;-72
2023/06/22 10:17:52;;;;;;;;;;;;;;;26.25;43.91;101696.09;5072775;28;19917;-72
2023/06/22 10:20:18;;;;;;;;;;;;;;;26.25;44.04;101690.63;5061106;28;19916;-72
2023/06/22 10:22:43;;;;;;;;;;;;;;;26.26;44.03;101696.94;5061160;28;20404;-72
2023/06/22 10:25:09;;;;;;;;;;;;;;;26.26;44.04;101695.03;5049753;28;19913;-72
2023/06/22 10:27:35;;;;;;;;;;;;;;;26.26;44.02;101695.03;5062448;28;19921;-72
2023/06/22 10:30:00;;;;;;;;;;;;;;;26.26;43.86;101691.47;5061379;28;19913;-73
2023/06/22 10:32:25;;;;;;;;;;;;;;;26.26;43.90;101697.75;5047179;28;19913;-72
2023/06/22 10:34:50;;;;;;;;;;;;;;;26.27;43.98;101701.34;5063579;28;20376;-72
2023/06/22 10:37:16;;;;;;;;;;;;;;;26.27;44.04;101699.44;5057058;28;19920;-72
2023/06/22 10:39:41;;;;;;;;;;;;;;;26.27;43.96;101702.16;5058770;28;19916;-72
2023/06/22 10:42:06;;;;;;;;;;;;;;;26.27;43.94;101706.78;5056396;28;19940;-72
2023/06/22 10:44:31;;;;;;;;;;;;;;;26.27;44.13;101704.91;5066173;28;19932;-73
2023/06/22 10:46:57;;;;;;;;;;;;;;;26.27;44.09;101701.34;5064229;28;19917;-72
2023/06/22 10:49:22;;;;;;;;;;;;;;;26.28;44.11;101703.00;5057379;28;19920;-73
2023/06/22 10:51:47;;;;;;;;;;;;;;;26.27;44.16;101695.88;5069292;28;19927;-73
2023/06/22 10:54:13;;;;;;;;;;;;;;;26.27;44.13;101696.72;5050520;28;19913;-72
2023/06/22 10:56:39;;;;;;;;;;;;;;;26.26;44.26;101692.31;5042316;28;19913;-73
2023/06/22 10:59:04;;;;;;;;;;;;;;;26.27;43.96;101690.44;5066905;28;19917;-73
2023/06/22 11:01:31;;;;;;;;;;;;;;;26.28;43.89;101694.81;5067979;28;19913;-72
2023/06/22 11:03:56;;;;;;;;;;;;;;;26.28;44.02;101692.94;5057596;28;19923;-73
2023/06/22 11:06:21;;;;;;;;;;;;;;;26.27;44.21;101694.00;5051891;28;19952;-72
2023/06/22 11:08:46;;;;;;;;;;;;;;;26.28;44.18;101692.09;5060566;28;19917;-72
2023/06/22 11:11:11;;;;;;;;;;;;;;;26.28;43.97;101692.94;5060756;28;19913;-72
2023/06/22 11:13:37;;;;;;;;;;;;;;;26.28;44.00;101689.38;5067057;28;20281;-72
2023/06/22 11:16:02;;;;;;;;;;;;;;;26.30;44.09;101684.59;5055061;28;19920;-72
2023/06/22 11:18:27;;;;;;;;;;;;;;;26.29;43.96;101678.25;5053147;28;19913;-72
2023/06/22 11:20:52;;;;;;;;;;;;;;;26.30;44.02;101684.59;5044281;28;19923;-72
2023/06/22 11:23:18;;;;;;;;;;;;;;;26.29;44.15;101672.81;5049801;28;19948;-72
2023/06/22 11:25:44;;;;;;;;;;;;;;;26.29;44.02;101677.41;5068466;28;19938;-72
2023/06/22 11:28:09;;;;;;;;;;;;;;;26.29;44.07;101664.63;5068481;28;19920;-72
2023/06/22 11:30:34;;;;;;;;;;;;;;;26.32;44.18;101668.84;5059023;28;19928;-72
2023/06/22 11:33:00;;;;;;;;;;;;;;;26.33;44.23;101659.63;5054314;28;19913;-72
2023/06/22 11:35:25;;;;;;;;;;;;;;;26.33;44.03;101659.63;5067152;28;19931;-72
2023/06/22 11:37:50;;;;;;;;;;;;;;;26.33;44.05;101662.34;5039002;28;20340;-72
2023/06/22 11:40:17;;;;;;;;;;;;;;;26.33;44.17;101655.00;5075711;28;19924;-72
2023/06/22 11:42:42;;;;;;;;;;;;;;;26.34;44.09;101647.69;5061255;28;19917;-72
2023/06/22 11:45:08;;;;;;;;;;;;;;;26.34;44.33;101644.97;5053504;28;19918;-72
2023/06/22 11:47:33;;;;;;;;;;;;;;;26.34;44.22;101640.34;5066630;28;19917;-72
2023/06/22 11:49:58;;;;;;;;;;;;;;;26.35;44.17;101638.47;5052705;28;19912;-72
2023/06/22 11:52:23;;;;;;;;;;;;;;;26.36;44.28;101637.41;5067408;28;19956;-72
2023/06/22 11:54:48;;;;;;;;;;;;;;;26.35;44.38;101635.75;5066447;28;19963;-72
2023/06/22 11:57:14;;;;;;;;;;;;;;;26.35;43.93;101631.13;5045115;28;19913;-72
2023/06/22 11:59:39;;;;;;;;;;;;;;;26.34;44.29;101632.19;5066440;28;19970;-72
2023/06/22 12:02:05;;;;;;;;;;;;;;;26.35;44.32;101622.94;5071320;28;19921;-72
2023/06/22 12:04:31;;;;;;;;;;;;;;;26.34;44.18;101624.00;5054909;28;19921;-72
2023/06/22 12:06:56;;;;;;;;;;;;;;;26.34;44.35;101626.72;5078042;28;20429;-72
2023/06/22 12:09:21;;;;;;;;;;;;;;;26.35;44.26;101630.28;5063378;28;19917;-72
2023/06/22 12:11:46;;;;;;;;;;;;;;;26.34;44.22;101624.00;5069509;28;19951;-72
2023/06/22 12:14:11;;;;;;;;;;;;;;;26.34;44.22;101634.91;5069611;28;19928;-72
2023/06/22 12:16:37;;;;;;;;;;;;;;;26.34;44.02;101623.16;5060066;28;19932;-72
2023/06/22 12:19:02;;;;;;;;;;;;;;;26.34;44.17;101618.53;5068239;28;19919;-72
2023/06/22 12:21:28;;;;;;;;;;;;;;;26.34;44.34;101625.88;5063205;28;19912;-72
2023/06/22 12:23:54;;;;;;;;;;;;;;;26.34;44.40;101620.44;5066469;28;19913;-72
2023/06/22 12:26:19;;;;;;;;;;;;;;;26.34;44.28;101623.16;5063097;28;20354;-72
2023/06/22 12:28:44;;;;;;;;;;;;;;;26.34;44.27;101609.53;5073748;28;19934;-72